Terminal Aerodrome Forecast
Issued by NWS

Home | Current Version | Previous Version | Graphics & Text | Print | Product List | Glossary Off
Versions: 1 2 3 4 5 6 7 8 9 10 11 12 13 14

000
FTUS43 KOAX 211720
TAFCDR
TAF
KCDR 211720Z 2118/2218 26008KT P6SM SKC
     FM212100 29006KT P6SM SCT100
     FM220300 28007KT P6SM BKN080=

USA.gov is the U.S. government's official web portal to all federal, state and local government web resources and services.